Wells Municipal-Harriet, NV

10:43 PM PST on December 21, 2014 (GMT -0800)
MesoWest HD Summit NV US NV DOT | Change Station
CLOSE
Current Station
Personal Weather Station
Location: Wells, NV
Elevation: 6282 ft
Nearby Weather Stations

Elev 6282 ft 41.35 °N, 114.81 °W | Updated 59 minutes ago

Overcast
Overcast
36 °F
Feels Like 26 °F
N
19
Wind Variable Wind from SW
Gusts 26.0 mph

Today
High -- | Low -- °F
--% Chance of Precip.
Yesterday
High -- | Low -- °F
Precip. -- in
7:01 AM 4:14 PM
New Moon, 0% visible
Pressure 30.13 in
Visibility 10.0 miles
Clouds Few 1700 ft
Mostly Cloudy 2900 ft
Overcast 5000 ft
Windchill 26 °F
Dew Point 29 °F
Humidity 74%
Rainfall -999.00 in
Snow Depth Not available.
UV 0 out of 12
Pollen .40 out of 12
Air Quality Not available.
Flu Activity Not available.
SPECI KEKO 220621Z AUTO 26012KT 10SM FEW017 BKN029 OVC050 08/06 A3013 RMK AO2 RAE18 P0000 T00780061

More Conditions Fewer Conditions

Pressure 30.13 in
Visibility 10.0 miles
Clouds Few 1700 ft
Mostly Cloudy 2900 ft
Overcast 5000 ft
Windchill 26 °F
Dew Point 29 °F
Humidity 74%
Rainfall -999.00 in
Snow Depth Not available.
UV 0 out of 12
Pollen .40 out of 12
Air Quality Not available.
Flu Activity Not available.
SPECI KEKO 220621Z AUTO 26012KT 10SM FEW017 BKN029 OVC050 08/06 A3013 RMK AO2 RAE18 P0000 T00780061

More Conditions Fewer Conditions

10-Day Weather Forecast

Almanac

Astronomy

Dec. 21, 2014 Rise Set
Actual Time
Civil Twilight
Nautical Twilight
Astronomical Twilight
Moon
Length of Visible Light
Length of Day
Tomorrow will be .
, % of the Moon is Illuminated

Today's Extremes

State Highs State Lows

Community

WunderPhotos

Upload Photos

1,779,560 photos uploaded!

WunderBlogs® & News

Nearby

Air Quality

  Air Quality AQ Index Pollutant
Not available.

Snow Depth

Station Depth Elevation

Earthquake Activity

City Distance Mag. Time & Date
Minimum magnitude displayed is 2.5.

Coastal Water Temperatures

Place Temperature

Nearby Weather Stations